sensor_id;sensor_type;location;lat;lon;timestamp;pressure;altitude;pressure_sealevel;temperature;humidity
69630;BME280;56857;52.212;5.496;2023-03-20T00:01:18;101975.25;;;9.01;100.00
69630;BME280;56857;52.212;5.496;2023-03-20T00:03:45;101978.16;;;8.98;100.00
69630;BME280;56857;52.212;5.496;2023-03-20T00:06:14;101985.41;;;8.96;100.00
69630;BME280;56857;52.212;5.496;2023-03-20T00:08:39;101976.63;;;8.96;100.00
69630;BME280;56857;52.212;5.496;2023-03-20T00:11:05;101988.31;;;8.93;100.00
69630;BME280;56857;52.212;5.496;2023-03-20T00:13:33;101989.16;;;8.94;100.00
69630;BME280;56857;52.212;5.496;2023-03-20T00:15:58;101993.59;;;8.93;100.00
69630;BME280;56857;52.212;5.496;2023-03-20T00:18:23;101994.44;;;8.94;100.00
69630;BME280;56857;52.212;5.496;2023-03-20T00:20:49;101997.09;;;8.94;100.00
69630;BME280;56857;52.212;5.496;2023-03-20T00:23:16;101990.81;;;8.95;100.00
69630;BME280;56857;52.212;5.496;2023-03-20T00:25:42;101989.88;;;8.96;100.00
69630;BME280;56857;52.212;5.496;2023-03-20T00:28:34;101973.16;;;8.95;100.00
69630;BME280;56857;52.212;5.496;2023-03-20T00:31:00;101978.56;;;8.94;100.00
69630;BME280;56857;52.212;5.496;2023-03-20T00:33:25;101984.84;;;8.93;100.00
69630;BME280;56857;52.212;5.496;2023-03-20T00:35:51;101984.84;;;8.93;100.00
69630;BME280;56857;52.212;5.496;2023-03-20T00:38:16;101966.59;;;8.90;100.00
69630;BME280;56857;52.212;5.496;2023-03-20T00:40:42;101958.66;;;8.90;100.00
69630;BME280;56857;52.212;5.496;2023-03-20T00:43:09;101957.22;;;8.86;100.00
69630;BME280;56857;52.212;5.496;2023-03-20T00:45:37;101964.31;;;8.85;100.00
69630;BME280;56857;52.212;5.496;2023-03-20T00:48:03;101970.31;;;8.87;100.00
69630;BME280;56857;52.212;5.496;2023-03-20T00:50:30;101988.00;;;8.87;100.00
69630;BME280;56857;52.212;5.496;2023-03-20T00:52:57;101996.63;;;8.89;100.00
69630;BME280;56857;52.212;5.496;2023-03-20T00:55:25;101999.16;;;8.90;100.00
69630;BME280;56857;52.212;5.496;2023-03-20T00:57:54;102012.22;;;8.92;100.00
69630;BME280;56857;52.212;5.496;2023-03-20T01:00:29;102010.56;;;8.91;100.00
69630;BME280;56857;52.212;5.496;2023-03-20T01:02:57;102017.53;;;8.92;100.00
69630;BME280;56857;52.212;5.496;2023-03-20T01:05:24;102041.47;;;8.90;100.00
69630;BME280;56857;52.212;5.496;2023-03-20T01:07:50;102038.56;;;8.93;100.00
69630;BME280;56857;52.212;5.496;2023-03-20T01:10:16;102034.94;;;8.94;100.00
69630;BME280;56857;52.212;5.496;2023-03-20T01:12:42;102027.41;;;8.90;100.00
69630;BME280;56857;52.212;5.496;2023-03-20T01:15:18;102026.69;;;8.88;100.00
69630;BME280;56857;52.212;5.496;2023-03-20T01:17:46;102015.13;;;8.89;100.00
69630;BME280;56857;52.212;5.496;2023-03-20T01:20:17;102013.72;;;8.85;100.00
69630;BME280;56857;52.212;5.496;2023-03-20T01:22:43;102024.44;;;8.83;100.00
69630;BME280;56857;52.212;5.496;2023-03-20T01:25:08;102013.97;;;8.81;100.00
69630;BME280;56857;52.212;5.496;2023-03-20T01:27:34;102019.41;;;8.80;100.00
69630;BME280;56857;52.212;5.496;2023-03-20T01:29:59;102016.78;;;8.80;100.00
69630;BME280;56857;52.212;5.496;2023-03-20T01:32:25;102022.06;;;8.80;100.00
69630;BME280;56857;52.212;5.496;2023-03-20T01:34:50;102011.59;;;8.78;100.00
69630;BME280;56857;52.212;5.496;2023-03-20T01:37:20;102029.13;;;8.79;100.00
69630;BME280;56857;52.212;5.496;2023-03-20T01:39:47;102026.63;;;8.78;100.00
69630;BME280;56857;52.212;5.496;2023-03-20T01:42:14;102021.34;;;8.78;100.00
69630;BME280;56857;52.212;5.496;2023-03-20T01:44:40;102010.91;;;8.76;100.00
69630;BME280;56857;52.212;5.496;2023-03-20T01:47:19;102006.72;;;8.74;100.00
69630;BME280;56857;52.212;5.496;2023-03-20T01:52:46;102019.78;;;8.75;100.00
69630;BME280;56857;52.212;5.496;2023-03-20T01:55:13;102015.31;;;8.76;100.00
69630;BME280;56857;52.212;5.496;2023-03-20T01:57:39;102015.47;;;8.74;100.00
69630;BME280;56857;52.212;5.496;2023-03-20T02:00:09;102013.81;;;8.73;100.00
69630;BME280;56857;52.212;5.496;2023-03-20T02:02:36;101988.31;;;8.72;100.00
69630;BME280;56857;52.212;5.496;2023-03-20T02:05:07;101983.28;;;8.69;100.00
69630;BME280;56857;52.212;5.496;2023-03-20T02:07:34;101987.16;;;8.65;100.00
69630;BME280;56857;52.212;5.496;2023-03-20T02:10:04;101998.09;;;8.61;100.00
69630;BME280;56857;52.212;5.496;2023-03-20T02:12:30;102007.00;;;8.59;100.00
69630;BME280;56857;52.212;5.496;2023-03-20T02:14:56;102004.50;;;8.58;100.00
69630;BME280;56857;52.212;5.496;2023-03-20T02:17:21;101990.47;;;8.57;100.00
69630;BME280;56857;52.212;5.496;2023-03-20T02:30:44;101982.69;;;8.45;100.00
69630;BME280;56857;52.212;5.496;2023-03-20T02:44:14;101985.22;;;8.35;100.00
69630;BME280;56857;52.212;5.496;2023-03-20T02:46:56;101980.06;;;8.33;100.00
69630;BME280;56857;52.212;5.496;2023-03-20T02:58:08;101964.16;;;8.24;100.00
69630;BME280;56857;52.212;5.496;2023-03-20T03:00:37;101957.16;;;8.23;100.00
69630;BME280;56857;52.212;5.496;2023-03-20T03:03:10;101960.09;;;8.20;100.00
69630;BME280;56857;52.212;5.496;2023-03-20T03:05:43;101947.72;;;8.20;100.00
69630;BME280;56857;52.212;5.496;2023-03-20T03:08:11;101934.75;;;8.17;100.00
69630;BME280;56857;52.212;5.496;2023-03-20T03:10:50;101916.63;;;8.12;100.00
69630;BME280;56857;52.212;5.496;2023-03-20T03:13:20;101914.41;;;8.08;100.00
69630;BME280;56857;52.212;5.496;2023-03-20T03:15:51;101916.31;;;8.06;100.00
69630;BME280;56857;52.212;5.496;2023-03-20T03:18:20;101926.88;;;8.06;100.00
69630;BME280;56857;52.212;5.496;2023-03-20T03:20:49;101918.22;;;8.04;100.00
69630;BME280;56857;52.212;5.496;2023-03-20T03:23:39;101913.22;;;8.01;100.00
69630;BME280;56857;52.212;5.496;2023-03-20T03:26:06;101930.03;;;8.00;100.00
69630;BME280;56857;52.212;5.496;2023-03-20T03:28:41;101924.16;;;7.96;100.00
69630;BME280;56857;52.212;5.496;2023-03-20T03:31:11;101928.59;;;7.96;100.00
69630;BME280;56857;52.212;5.496;2023-03-20T03:33:40;101914.94;;;7.90;100.00
69630;BME280;56857;52.212;5.496;2023-03-20T03:36:12;101917.72;;;7.89;100.00
69630;BME280;56857;52.212;5.496;2023-03-20T03:39:11;101911.84;;;7.85;100.00
69630;BME280;56857;52.212;5.496;2023-03-20T03:44:20;101929.75;;;7.82;100.00
69630;BME280;56857;52.212;5.496;2023-03-20T03:46:56;101916.66;;;7.80;100.00
69630;BME280;56857;52.212;5.496;2023-03-20T03:49:32;101919.28;;;7.80;100.00
69630;BME280;56857;52.212;5.496;2023-03-20T03:52:04;101907.31;;;7.76;100.00
69630;BME280;56857;52.212;5.496;2023-03-20T03:57:09;101907.66;;;7.72;100.00
69630;BME280;56857;52.212;5.496;2023-03-20T03:59:40;101905.41;;;7.67;100.00
69630;BME280;56857;52.212;5.496;2023-03-20T04:02:07;101901.94;;;7.66;100.00
69630;BME280;56857;52.212;5.496;2023-03-20T04:04:36;101898.59;;;7.64;100.00
69630;BME280;56857;52.212;5.496;2023-03-20T04:07:02;101902.88;;;7.65;100.00
69630;BME280;56857;52.212;5.496;2023-03-20T04:09:28;101899.56;;;7.63;100.00
69630;BME280;56857;52.212;5.496;2023-03-20T04:11:53;101898.84;;;7.61;100.00
69630;BME280;56857;52.212;5.496;2023-03-20T04:14:19;101902.69;;;7.57;100.00
69630;BME280;56857;52.212;5.496;2023-03-20T04:16:45;101900.16;;;7.56;100.00
69630;BME280;56857;52.212;5.496;2023-03-20T04:19:10;101905.56;;;7.54;100.00
69630;BME280;56857;52.212;5.496;2023-03-20T04:21:36;101897.75;;;7.53;100.00
69630;BME280;56857;52.212;5.496;2023-03-20T04:24:01;101893.47;;;7.52;100.00
69630;BME280;56857;52.212;5.496;2023-03-20T04:26:26;101890.94;;;7.50;100.00
69630;BME280;56857;52.212;5.496;2023-03-20T04:28:51;101891.22;;;7.47;100.00
69630;BME280;56857;52.212;5.496;2023-03-20T04:31:17;101892.28;;;7.45;100.00
69630;BME280;56857;52.212;5.496;2023-03-20T04:33:42;101881.84;;;7.43;100.00
69630;BME280;56857;52.212;5.496;2023-03-20T04:36:09;101890.72;;;7.42;100.00
69630;BME280;56857;52.212;5.496;2023-03-20T04:38:35;101897.66;;;7.43;100.00
69630;BME280;56857;52.212;5.496;2023-03-20T04:41:01;101897.56;;;7.45;100.00
69630;BME280;56857;52.212;5.496;2023-03-20T04:43:26;101895.03;;;7.43;100.00
69630;BME280;56857;52.212;5.496;2023-03-20T04:45:52;101891.56;;;7.42;100.00
69630;BME280;56857;52.212;5.496;2023-03-20T04:48:17;101892.53;;;7.41;100.00
69630;BME280;56857;52.212;5.496;2023-03-20T04:50:42;101897.91;;;7.40;100.00
69630;BME280;56857;52.212;5.496;2023-03-20T04:53:08;101895.41;;;7.38;100.00
69630;BME280;56857;52.212;5.496;2023-03-20T04:55:33;101897.31;;;7.36;100.00
69630;BME280;56857;52.212;5.496;2023-03-20T04:57:58;101885.94;;;7.36;100.00
69630;BME280;56857;52.212;5.496;2023-03-20T05:00:24;101886.91;;;7.35;100.00
69630;BME280;56857;52.212;5.496;2023-03-20T05:02:49;101895.66;;;7.35;100.00
69630;BME280;56857;52.212;5.496;2023-03-20T05:05:15;101881.63;;;7.35;100.00
69630;BME280;56857;52.212;5.496;2023-03-20T05:07:40;101879.09;;;7.33;100.00
69630;BME280;56857;52.212;5.496;2023-03-20T05:10:06;101875.63;;;7.33;100.00
69630;BME280;56857;52.212;5.496;2023-03-20T05:12:32;101878.28;;;7.33;100.00
69630;BME280;56857;52.212;5.496;2023-03-20T05:14:58;101879.25;;;7.32;100.00
69630;BME280;56857;52.212;5.496;2023-03-20T05:17:23;101877.53;;;7.31;100.00
69630;BME280;56857;52.212;5.496;2023-03-20T05:19:50;101877.69;;;7.29;100.00
69630;BME280;56857;52.212;5.496;2023-03-20T05:22:18;101880.41;;;7.28;100.00
69630;BME280;56857;52.212;5.496;2023-03-20T05:24:46;101885.00;;;7.26;100.00
69630;BME280;56857;52.212;5.496;2023-03-20T05:27:12;101880.56;;;7.26;100.00
69630;BME280;56857;52.212;5.496;2023-03-20T05:29:37;101884.88;;;7.27;100.00
69630;BME280;56857;52.212;5.496;2023-03-20T05:32:03;101881.53;;;7.25;100.00
69630;BME280;56857;52.212;5.496;2023-03-20T05:34:28;101882.38;;;7.26;100.00
69630;BME280;56857;52.212;5.496;2023-03-20T05:36:54;101881.41;;;7.27;100.00
69630;BME280;56857;52.212;5.496;2023-03-20T05:39:19;101881.41;;;7.27;100.00
69630;BME280;56857;52.212;5.496;2023-03-20T05:41:45;101879.84;;;7.24;100.00
69630;BME280;56857;52.212;5.496;2023-03-20T05:44:10;101887.88;;;7.23;100.00
69630;BME280;56857;52.212;5.496;2023-03-20T05:46:35;101890.38;;;7.24;100.00
69630;BME280;56857;52.212;5.496;2023-03-20T05:49:01;101895.91;;;7.21;100.00
69630;BME280;56857;52.212;5.496;2023-03-20T05:51:26;101906.44;;;7.21;100.00
69630;BME280;56857;52.212;5.496;2023-03-20T05:53:52;101901.06;;;7.23;100.00
69630;BME280;56857;52.212;5.496;2023-03-20T05:56:17;101907.19;;;7.23;100.00
69630;BME280;56857;52.212;5.496;2023-03-20T05:58:42;101903.47;;;7.26;100.00
69630;BME280;56857;52.212;5.496;2023-03-20T06:01:08;101906.09;;;7.26;100.00
69630;BME280;56857;52.212;5.496;2023-03-20T06:03:33;101908.75;;;7.26;100.00
69630;BME280;56857;52.212;5.496;2023-03-20T06:05:58;101910.53;;;7.25;100.00
69630;BME280;56857;52.212;5.496;2023-03-20T06:08:24;101901.75;;;7.25;100.00
69630;BME280;56857;52.212;5.496;2023-03-20T06:10:49;101886.06;;;7.23;100.00
69630;BME280;56857;52.212;5.496;2023-03-20T06:13:15;101893.84;;;7.25;100.00
69630;BME280;56857;52.212;5.496;2023-03-20T06:15:41;101889.44;;;7.25;100.00
69630;BME280;56857;52.212;5.496;2023-03-20T06:18:06;101892.09;;;7.25;100.00
69630;BME280;56857;52.212;5.496;2023-03-20T06:20:32;101894.81;;;7.24;100.00
69630;BME280;56857;52.212;5.496;2023-03-20T06:22:57;101894.81;;;7.24;100.00
69630;BME280;56857;52.212;5.496;2023-03-20T06:25:23;101891.47;;;7.22;100.00
69630;BME280;56857;52.212;5.496;2023-03-20T06:27:48;101899.25;;;7.23;100.00
69630;BME280;56857;52.212;5.496;2023-03-20T06:30:14;101907.19;;;7.23;100.00
69630;BME280;56857;52.212;5.496;2023-03-20T06:32:39;101908.97;;;7.23;100.00
69630;BME280;56857;52.212;5.496;2023-03-20T06:35:05;101915.91;;;7.24;100.00
69630;BME280;56857;52.212;5.496;2023-03-20T06:37:31;101916.88;;;7.23;100.00
69630;BME280;56857;52.212;5.496;2023-03-20T06:39:56;101913.41;;;7.22;100.00
69630;BME280;56857;52.212;5.496;2023-03-20T06:42:22;101916.88;;;7.23;100.00
69630;BME280;56857;52.212;5.496;2023-03-20T06:44:47;101916.88;;;7.23;100.00
69630;BME280;56857;52.212;5.496;2023-03-20T06:47:15;101922.03;;;7.24;100.00
69630;BME280;56857;52.212;5.496;2023-03-20T06:49:40;101919.63;;;7.21;100.00
69630;BME280;56857;52.212;5.496;2023-03-20T06:52:06;101927.53;;;7.21;100.00
69630;BME280;56857;52.212;5.496;2023-03-20T06:54:32;101922.16;;;7.23;100.00
69630;BME280;56857;52.212;5.496;2023-03-20T06:56:58;101919.63;;;7.21;100.00
69630;BME280;56857;52.212;5.496;2023-03-20T06:59:23;101927.53;;;7.21;100.00
69630;BME280;56857;52.212;5.496;2023-03-20T07:01:49;101918.56;;;7.24;100.00
69630;BME280;56857;52.212;5.496;2023-03-20T07:04:15;101917.59;;;7.25;100.00
69630;BME280;56857;52.212;5.496;2023-03-20T07:06:40;101931.63;;;7.25;100.00
69630;BME280;56857;52.212;5.496;2023-03-20T07:09:05;101924.66;;;7.24;100.00
69630;BME280;56857;52.212;5.496;2023-03-20T07:11:31;101921.19;;;7.24;100.00
69630;BME280;56857;52.212;5.496;2023-03-20T07:13:56;101919.38;;;7.24;100.00
69630;BME280;56857;52.212;5.496;2023-03-20T07:16:21;101916.75;;;7.24;100.00
69630;BME280;56857;52.212;5.496;2023-03-20T07:18:47;101929.09;;;7.24;100.00
69630;BME280;56857;52.212;5.496;2023-03-20T07:21:17;101927.44;;;7.23;100.00
69630;BME280;56857;52.212;5.496;2023-03-20T07:23:44;101921.19;;;7.24;100.00
69630;BME280;56857;52.212;5.496;2023-03-20T07:26:09;101923.00;;;7.23;100.00
69630;BME280;56857;52.212;5.496;2023-03-20T07:28:34;101929.94;;;7.24;100.00
69630;BME280;56857;52.212;5.496;2023-03-20T07:31:00;101930.78;;;7.25;100.00
69630;BME280;56857;52.212;5.496;2023-03-20T07:33:25;101933.31;;;7.26;100.00
69630;BME280;56857;52.212;5.496;2023-03-20T07:35:52;101935.13;;;7.26;100.00
69630;BME280;56857;52.212;5.496;2023-03-20T07:38:18;101934.28;;;7.25;100.00
69630;BME280;56857;52.212;5.496;2023-03-20T07:40:43;101942.88;;;7.27;100.00
69630;BME280;56857;52.212;5.496;2023-03-20T07:43:08;101941.09;;;7.28;100.00
69630;BME280;56857;52.212;5.496;2023-03-20T07:45:35;101946.34;;;7.28;100.00
69630;BME280;56857;52.212;5.496;2023-03-20T07:48:00;101940.97;;;7.29;100.00
69630;BME280;56857;52.212;5.496;2023-03-20T07:50:25;101935.56;;;7.31;100.00
69630;BME280;56857;52.212;5.496;2023-03-20T07:52:51;101942.66;;;7.30;100.00
69630;BME280;56857;52.212;5.496;2023-03-20T07:55:16;101931.50;;;7.27;100.00
69630;BME280;56857;52.212;5.496;2023-03-20T07:57:42;101936.78;;;7.27;100.00
69630;BME280;56857;52.212;5.496;2023-03-20T08:00:08;101925.50;;;7.25;100.00
69630;BME280;56857;52.212;5.496;2023-03-20T08:02:35;101935.13;;;7.26;100.00
69630;BME280;56857;52.212;5.496;2023-03-20T08:05:00;101932.47;;;7.26;100.00
69630;BME280;56857;52.212;5.496;2023-03-20T08:07:26;101933.91;;;7.30;100.00
69630;BME280;56857;52.212;5.496;2023-03-20T08:09:51;101928.50;;;7.31;100.00
69630;BME280;56857;52.212;5.496;2023-03-20T08:12:17;101937.25;;;7.32;100.00
69630;BME280;56857;52.212;5.496;2023-03-20T08:14:42;101926.72;;;7.32;100.00
69630;BME280;56857;52.212;5.496;2023-03-20T08:17:07;101916.75;;;7.35;100.00
69630;BME280;56857;52.212;5.496;2023-03-20T08:19:33;101926.22;;;7.38;100.00
69630;BME280;56857;52.212;5.496;2023-03-20T08:21:58;101926.81;;;7.41;100.00
69630;BME280;56857;52.212;5.496;2023-03-20T08:24:23;101924.78;;;7.45;100.00
69630;BME280;56857;52.212;5.496;2023-03-20T08:26:49;101920.34;;;7.46;100.00
69630;BME280;56857;52.212;5.496;2023-03-20T08:29:14;101928.00;;;7.49;100.00
69630;BME280;56857;52.212;5.496;2023-03-20T08:31:40;101919.00;;;7.51;100.00
69630;BME280;56857;52.212;5.496;2023-03-20T08:34:05;101924.88;;;7.55;100.00
69630;BME280;56857;52.212;5.496;2023-03-20T08:36:30;101924.63;;;7.58;100.00
69630;BME280;56857;52.212;5.496;2023-03-20T08:38:56;101923.66;;;7.59;100.00
69630;BME280;56857;52.212;5.496;2023-03-20T08:41:21;101924.38;;;7.61;100.00
69630;BME280;56857;52.212;5.496;2023-03-20T08:43:46;101920.78;;;7.62;100.00
69630;BME280;56857;52.212;5.496;2023-03-20T08:46:12;101924.88;;;7.66;100.00
69630;BME280;56857;52.212;5.496;2023-03-20T08:48:37;101923.50;;;7.72;100.00
69630;BME280;56857;52.212;5.496;2023-03-20T08:51:04;101926.63;;;7.77;100.00
69630;BME280;56857;52.212;5.496;2023-03-20T08:53:29;101926.13;;;7.83;100.00
69630;BME280;56857;52.212;5.496;2023-03-20T08:55:55;101916.97;;;7.87;100.00
69630;BME280;56857;52.212;5.496;2023-03-20T08:58:20;101921.91;;;7.92;100.00
69630;BME280;56857;52.212;5.496;2023-03-20T09:00:46;101922.34;;;7.97;100.00
69630;BME280;56857;52.212;5.496;2023-03-20T09:03:16;101922.00;;;8.01;100.00
69630;BME280;56857;52.212;5.496;2023-03-20T09:05:43;101930.50;;;8.05;100.00
69630;BME280;56857;52.212;5.496;2023-03-20T09:08:11;101921.47;;;8.07;100.00
69630;BME280;56857;52.212;5.496;2023-03-20T09:10:36;101929.41;;;8.07;100.00
69630;BME280;56857;52.212;5.496;2023-03-20T09:13:02;101939.09;;;8.07;100.00
69630;BME280;56857;52.212;5.496;2023-03-20T09:15:34;101938.16;;;8.08;100.00
69630;BME280;56857;52.212;5.496;2023-03-20T09:18:01;101945.84;;;8.11;100.00
69630;BME280;56857;52.212;5.496;2023-03-20T09:20:27;101944.13;;;8.10;100.00
69630;BME280;56857;52.212;5.496;2023-03-20T09:22:52;101945.00;;;8.10;100.00
69630;BME280;56857;52.212;5.496;2023-03-20T09:25:18;101956.16;;;8.14;100.00
69630;BME280;56857;52.212;5.496;2023-03-20T09:27:43;101943.78;;;8.15;100.00
69630;BME280;56857;52.212;5.496;2023-03-20T09:30:09;101952.28;;;8.18;100.00
69630;BME280;56857;52.212;5.496;2023-03-20T09:32:35;101951.88;;;8.23;100.00
69630;BME280;56857;52.212;5.496;2023-03-20T09:35:02;101949.84;;;8.26;100.00
69630;BME280;56857;52.212;5.496;2023-03-20T09:37:28;101948.03;;;8.27;100.00
69630;BME280;56857;52.212;5.496;2023-03-20T09:39:54;101949.72;;;8.28;100.00
69630;BME280;56857;52.212;5.496;2023-03-20T09:47:46;101948.03;;;8.27;100.00
69630;BME280;56857;52.212;5.496;2023-03-20T09:50:27;101945.53;;;8.25;100.00
69630;BME280;56857;52.212;5.496;2023-03-20T09:53:17;101935.94;;;8.24;100.00
69630;BME280;56857;52.212;5.496;2023-03-20T09:55:46;101941.53;;;8.31;100.00
69630;BME280;56857;52.212;5.496;2023-03-20T09:58:19;101939.63;;;8.33;100.00
69630;BME280;56857;52.212;5.496;2023-03-20T10:00:45;101933.75;;;8.29;100.00
69630;BME280;56857;52.212;5.496;2023-03-20T10:03:25;101928.72;;;8.26;100.00
69630;BME280;56857;52.212;5.496;2023-03-20T10:05:59;101938.69;;;8.23;100.00
69630;BME280;56857;52.212;5.496;2023-03-20T10:08:30;101936.91;;;8.23;100.00
69630;BME280;56857;52.212;5.496;2023-03-20T10:13:42;101935.53;;;8.29;100.00
69630;BME280;56857;52.212;5.496;2023-03-20T10:18:48;101929.16;;;8.43;100.00
69630;BME280;56857;52.212;5.496;2023-03-20T10:21:20;101925.53;;;8.44;100.00
69630;BME280;56857;52.212;5.496;2023-03-20T10:23:59;101935.84;;;8.47;100.00
69630;BME280;56857;52.212;5.496;2023-03-20T10:26:26;101936.41;;;8.50;100.00
69630;BME280;56857;52.212;5.496;2023-03-20T10:28:55;101932.94;;;8.50;100.00
69630;BME280;56857;52.212;5.496;2023-03-20T10:31:50;101941.19;;;8.56;100.00
69630;BME280;56857;52.212;5.496;2023-03-20T10:34:37;101931.72;;;8.54;100.00
69630;BME280;56857;52.212;5.496;2023-03-20T10:42:32;101927.66;;;8.50;100.00
69630;BME280;56857;52.212;5.496;2023-03-20T10:45:20;101930.56;;;8.47;100.00
69630;BME280;56857;52.212;5.496;2023-03-20T10:47:50;101925.28;;;8.47;100.00
69630;BME280;56857;52.212;5.496;2023-03-20T10:50:18;101929.00;;;8.44;100.00
69630;BME280;56857;52.212;5.496;2023-03-20T10:52:47;101918.84;;;8.40;100.00
69630;BME280;56857;52.212;5.496;2023-03-20T10:55:17;101920.03;;;8.35;100.00
69630;BME280;56857;52.212;5.496;2023-03-20T10:57:48;101919.81;;;8.27;100.00
69630;BME280;56857;52.212;5.496;2023-03-20T11:00:23;101913.25;;;8.22;100.00
69630;BME280;56857;52.212;5.496;2023-03-20T11:02:51;101912.81;;;8.17;100.00
69630;BME280;56857;52.212;5.496;2023-03-20T11:05:27;101913.88;;;8.14;100.00
69630;BME280;56857;52.212;5.496;2023-03-20T11:08:05;101912.09;;;8.15;100.00
69630;BME280;56857;52.212;5.496;2023-03-20T11:10:35;101910.59;;;8.22;100.00
69630;BME280;56857;52.212;5.496;2023-03-20T11:13:25;101915.50;;;8.26;100.00
69630;BME280;56857;52.212;5.496;2023-03-20T11:15:53;101904.56;;;8.31;100.00
69630;BME280;56857;52.212;5.496;2023-03-20T11:18:24;101914.75;;;8.35;100.00
69630;BME280;56857;52.212;5.496;2023-03-20T11:20:53;101914.03;;;8.33;100.00
69630;BME280;56857;52.212;5.496;2023-03-20T11:23:24;101909.97;;;8.29;100.00
69630;BME280;56857;52.212;5.496;2023-03-20T11:25:57;101908.44;;;8.27;100.00
69630;BME280;56857;52.212;5.496;2023-03-20T11:31:17;101903.75;;;8.19;100.00
69630;BME280;56857;52.212;5.496;2023-03-20T11:36:59;101883.75;;;8.17;100.00
69630;BME280;56857;52.212;5.496;2023-03-20T11:39:29;101886.75;;;8.12;100.00
69630;BME280;56857;52.212;5.496;2023-03-20T11:41:57;101879.09;;;8.09;100.00
69630;BME280;56857;52.212;5.496;2023-03-20T11:44:34;101881.72;;;8.09;100.00
69630;BME280;56857;52.212;5.496;2023-03-20T11:47:11;101880.50;;;8.13;100.00
69630;BME280;56857;52.212;5.496;2023-03-20T11:49:53;101877.50;;;8.18;100.00
69630;BME280;56857;52.212;5.496;2023-03-20T11:52:24;101881.69;;;8.20;100.00
69630;BME280;56857;52.212;5.496;2023-03-20T11:54:53;101872.78;;;8.21;100.00
69630;BME280;56857;52.212;5.496;2023-03-20T11:57:35;101872.53;;;8.24;100.00
69630;BME280;56857;52.212;5.496;2023-03-20T12:00:11;101871.44;;;8.27;100.00
69630;BME280;56857;52.212;5.496;2023-03-20T12:02:42;101878.97;;;8.31;100.00
69630;BME280;56857;52.212;5.496;2023-03-20T12:05:28;101878.28;;;8.29;100.00
69630;BME280;56857;52.212;5.496;2023-03-20T12:07:56;101879.09;;;8.30;100.00
69630;BME280;56857;52.212;5.496;2023-03-20T12:10:28;101874.66;;;8.30;100.00
69630;BME280;56857;52.212;5.496;2023-03-20T12:13:01;101872.13;;;8.29;100.00
69630;BME280;56857;52.212;5.496;2023-03-20T12:15:36;101874.66;;;8.30;100.00
69630;BME280;56857;52.212;5.496;2023-03-20T12:18:24;101873.69;;;8.31;100.00
69630;BME280;56857;52.212;5.496;2023-03-20T12:28:56;101870.09;;;8.32;100.00
69630;BME280;56857;52.212;5.496;2023-03-20T12:31:51;101873.69;;;8.31;100.00
69630;BME280;56857;52.212;5.496;2023-03-20T12:34:23;101874.25;;;8.35;100.00
69630;BME280;56857;52.212;5.496;2023-03-20T12:36:53;101869.13;;;8.33;100.00
69630;BME280;56857;52.212;5.496;2023-03-20T12:39:21;101863.13;;;8.31;100.00
69630;BME280;56857;52.212;5.496;2023-03-20T12:45:03;101869.38;;;8.30;100.00
69630;BME280;56857;52.212;5.496;2023-03-20T13:06:53;101840.41;;;8.40;100.00
69630;BME280;56857;52.212;5.496;2023-03-20T13:14:51;101837.34;;;8.45;100.00
69630;BME280;56857;52.212;5.496;2023-03-20T13:17:27;101832.94;;;8.45;100.00
69630;BME280;56857;52.212;5.496;2023-03-20T13:22:31;101831.63;;;8.40;100.00
69630;BME280;56857;52.212;5.496;2023-03-20T13:25:12;101828.03;;;8.41;100.00
69630;BME280;56857;52.212;5.496;2023-03-20T13:27:45;101821.66;;;8.43;100.00
69630;BME280;56857;52.212;5.496;2023-03-20T13:30:30;101825.00;;;8.45;100.00
69630;BME280;56857;52.212;5.496;2023-03-20T13:38:34;101826.53;;;8.48;100.00
69630;BME280;56857;52.212;5.496;2023-03-20T13:41:04;101824.59;;;8.50;100.00
69630;BME280;56857;52.212;5.496;2023-03-20T13:43:38;101822.09;;;8.48;100.00
69630;BME280;56857;52.212;5.496;2023-03-20T13:48:38;101809.97;;;8.46;100.00
69630;BME280;56857;52.212;5.496;2023-03-20T13:51:39;101816.09;;;8.46;100.00
69630;BME280;56857;52.212;5.496;2023-03-20T14:02:19;101804.03;;;8.53;100.00
69630;BME280;56857;52.212;5.496;2023-03-20T14:04:50;101815.44;;;8.54;100.00
69630;BME280;56857;52.212;5.496;2023-03-20T14:07:37;101809.19;;;8.55;100.00
69630;BME280;56857;52.212;5.496;2023-03-20T14:12:53;101810.03;;;8.55;100.00
69630;BME280;56857;52.212;5.496;2023-03-20T14:15:19;101802.94;;;8.56;100.00
69630;BME280;56857;52.212;5.496;2023-03-20T14:17:47;101810.75;;;8.57;100.00
69630;BME280;56857;52.212;5.496;2023-03-20T14:20:39;101816.72;;;8.59;100.00
69630;BME280;56857;52.212;5.496;2023-03-20T14:23:16;101805.03;;;8.62;100.00
69630;BME280;56857;52.212;5.496;2023-03-20T14:25:42;101806.84;;;8.62;100.00
69630;BME280;56857;52.212;5.496;2023-03-20T14:28:22;101805.16;;;8.61;100.00
69630;BME280;56857;52.212;5.496;2023-03-20T14:30:49;101807.81;;;8.61;100.00
69630;BME280;56857;52.212;5.496;2023-03-20T14:38:37;101799.03;;;8.60;100.00
69630;BME280;56857;52.212;5.496;2023-03-20T14:44:18;101806.28;;;8.58;100.00
69630;BME280;56857;52.212;5.496;2023-03-20T14:46:51;101802.81;;;8.57;100.00
69630;BME280;56857;52.212;5.496;2023-03-20T14:49:31;101804.31;;;8.60;100.00
69630;BME280;56857;52.212;5.496;2023-03-20T14:52:25;101804.47;;;8.58;100.00
69630;BME280;56857;52.212;5.496;2023-03-20T14:54:54;101802.81;;;8.57;100.00
69630;BME280;56857;52.212;5.496;2023-03-20T14:57:31;101802.09;;;8.55;100.00
69630;BME280;56857;52.212;5.496;2023-03-20T14:59:56;101807.38;;;8.55;100.00
69630;BME280;56857;52.212;5.496;2023-03-20T15:02:28;101801.13;;;8.56;100.00
69630;BME280;56857;52.212;5.496;2023-03-20T15:04:54;101802.66;;;8.59;100.00
69630;BME280;56857;52.212;5.496;2023-03-20T15:09:47;101809.31;;;8.53;100.00